sensor_id;sensor_type;location;lat;lon;timestamp;pressure;altitude;pressure_sealevel;temperature;humidity
71805;BME280;59654;52.216;5.616;2023-05-20T00:00:00;102319.28;;;10.04;77.49
71805;BME280;59654;52.216;5.616;2023-05-20T00:00:31;102322.84;;;10.04;77.45
71805;BME280;59654;52.216;5.616;2023-05-20T00:01:02;102314.84;;;10.04;76.64
71805;BME280;59654;52.216;5.616;2023-05-20T00:01:33;102321.97;;;10.02;77.10
71805;BME280;59654;52.216;5.616;2023-05-20T00:02:03;102315.75;;;10.03;76.69
71805;BME280;59654;52.216;5.616;2023-05-20T00:02:34;102317.53;;;10.03;77.75
71805;BME280;59654;52.216;5.616;2023-05-20T00:03:05;102321.06;;;10.05;77.27
71805;BME280;59654;52.216;5.616;2023-05-20T00:03:36;102317.53;;;10.03;76.69
71805;BME280;59654;52.216;5.616;2023-05-20T00:04:07;102317.53;;;10.03;77.60
71805;BME280;59654;52.216;5.616;2023-05-20T00:04:37;102319.31;;;10.02;76.91
71805;BME280;59654;52.216;5.616;2023-05-20T00:05:11;102313.16;;;9.99;76.98
71805;BME280;59654;52.216;5.616;2023-05-20T00:05:42;102318.44;;;10.00;77.85
71805;BME280;59654;52.216;5.616;2023-05-20T00:06:12;102328.19;;;10.01;77.08
71805;BME280;59654;52.216;5.616;2023-05-20T00:06:44;102319.31;;;10.01;76.98
71805;BME280;59654;52.216;5.616;2023-05-20T00:07:15;102323.78;;;10.00;77.99
71805;BME280;59654;52.216;5.616;2023-05-20T00:07:46;102316.72;;;9.98;77.40
71805;BME280;59654;52.216;5.616;2023-05-20T00:08:18;102313.19;;;9.95;77.70
71805;BME280;59654;52.216;5.616;2023-05-20T00:08:49;102317.59;;;9.98;77.19
71805;BME280;59654;52.216;5.616;2023-05-20T00:09:20;102319.34;;;9.99;77.83
71805;BME280;59654;52.216;5.616;2023-05-20T00:09:51;102321.16;;;9.97;77.77
71805;BME280;59654;52.216;5.616;2023-05-20T00:10:22;102324.75;;;9.93;77.20
71805;BME280;59654;52.216;5.616;2023-05-20T00:10:53;102315.88;;;9.94;77.78
71805;BME280;59654;52.216;5.616;2023-05-20T00:11:23;102307.88;;;9.94;78.17
71805;BME280;59654;52.216;5.616;2023-05-20T00:11:55;102314.94;;;9.98;77.53
71805;BME280;59654;52.216;5.616;2023-05-20T00:12:26;102318.53;;;9.95;77.47
71805;BME280;59654;52.216;5.616;2023-05-20T00:12:58;102311.41;;;9.98;77.19
71805;BME280;59654;52.216;5.616;2023-05-20T00:13:28;102314.00;;;9.99;77.10
71805;BME280;59654;52.216;5.616;2023-05-20T00:13:59;102314.06;;;9.98;77.76
71805;BME280;59654;52.216;5.616;2023-05-20T00:14:30;102307.84;;;9.99;77.50
71805;BME280;59654;52.216;5.616;2023-05-20T00:15:01;102313.19;;;9.97;77.89
71805;BME280;59654;52.216;5.616;2023-05-20T00:15:33;102317.59;;;9.98;78.11
71805;BME280;59654;52.216;5.616;2023-05-20T00:16:05;102312.28;;;9.98;77.66
71805;BME280;59654;52.216;5.616;2023-05-20T00:16:36;102316.72;;;9.98;77.57
71805;BME280;59654;52.216;5.616;2023-05-20T00:17:07;102310.53;;;9.94;77.81
71805;BME280;59654;52.216;5.616;2023-05-20T00:17:37;102309.66;;;9.93;78.46
71805;BME280;59654;52.216;5.616;2023-05-20T00:18:08;102324.75;;;9.94;78.34
71805;BME280;59654;52.216;5.616;2023-05-20T00:18:39;102308.81;;;9.90;78.35
71805;BME280;59654;52.216;5.616;2023-05-20T00:19:10;102307.91;;;9.91;77.87
71805;BME280;59654;52.216;5.616;2023-05-20T00:19:41;102308.75;;;9.94;77.58
71805;BME280;59654;52.216;5.616;2023-05-20T00:20:13;102308.75;;;9.96;78.41
71805;BME280;59654;52.216;5.616;2023-05-20T00:20:44;102313.19;;;9.95;77.62
71805;BME280;59654;52.216;5.616;2023-05-20T00:21:16;102308.75;;;9.96;78.65
71805;BME280;59654;52.216;5.616;2023-05-20T00:21:47;102313.22;;;9.92;78.23
71805;BME280;59654;52.216;5.616;2023-05-20T00:22:18;102310.59;;;9.89;77.61
71805;BME280;59654;52.216;5.616;2023-05-20T00:22:49;102320.38;;;9.86;78.58
71805;BME280;59654;52.216;5.616;2023-05-20T00:23:20;102315.97;;;9.85;77.66
71805;BME280;59654;52.216;5.616;2023-05-20T00:23:50;102315.06;;;9.87;77.72
71805;BME280;59654;52.216;5.616;2023-05-20T00:24:21;102323.00;;;9.92;78.57
71805;BME280;59654;52.216;5.616;2023-05-20T00:24:52;102319.47;;;9.90;78.37
71805;BME280;59654;52.216;5.616;2023-05-20T00:25:23;102323.00;;;9.90;77.69
71805;BME280;59654;52.216;5.616;2023-05-20T00:25:54;102317.69;;;9.90;77.97
71805;BME280;59654;52.216;5.616;2023-05-20T00:26:25;102319.44;;;9.91;77.70
71805;BME280;59654;52.216;5.616;2023-05-20T00:26:58;102308.78;;;9.93;78.82
71805;BME280;59654;52.216;5.616;2023-05-20T00:27:29;102320.34;;;9.90;78.76
71805;BME280;59654;52.216;5.616;2023-05-20T00:28:00;102320.38;;;9.89;78.62
71805;BME280;59654;52.216;5.616;2023-05-20T00:28:31;102309.69;;;9.90;78.38
71805;BME280;59654;52.216;5.616;2023-05-20T00:29:02;102323.00;;;9.92;78.46
71805;BME280;59654;52.216;5.616;2023-05-20T00:29:33;102315.84;;;9.95;77.74
71805;BME280;59654;52.216;5.616;2023-05-20T00:30:05;102314.06;;;9.96;77.78
71805;BME280;59654;52.216;5.616;2023-05-20T00:30:39;102316.72;;;9.98;78.39
71805;BME280;59654;52.216;5.616;2023-05-20T00:31:11;102319.34;;;9.99;77.83
71805;BME280;59654;52.216;5.616;2023-05-20T00:31:42;102322.00;;;10.01;77.99
71805;BME280;59654;52.216;5.616;2023-05-20T00:32:13;102323.78;;;10.00;77.83
71805;BME280;59654;52.216;5.616;2023-05-20T00:32:44;102317.59;;;9.98;78.20
71805;BME280;59654;52.216;5.616;2023-05-20T00:33:15;102314.00;;;9.99;77.57
71805;BME280;59654;52.216;5.616;2023-05-20T00:33:46;102319.38;;;9.98;78.42
71805;BME280;59654;52.216;5.616;2023-05-20T00:34:16;102314.00;;;9.99;77.57
71805;BME280;59654;52.216;5.616;2023-05-20T00:34:57;102314.06;;;9.96;77.40
71805;BME280;59654;52.216;5.616;2023-05-20T00:35:29;102313.22;;;9.94;78.03
71805;BME280;59654;52.216;5.616;2023-05-20T00:35:59;102316.78;;;9.93;77.61
71805;BME280;59654;52.216;5.616;2023-05-20T00:36:30;102315.88;;;9.94;77.66
71805;BME280;59654;52.216;5.616;2023-05-20T00:37:01;102310.53;;;9.94;77.63
71805;BME280;59654;52.216;5.616;2023-05-20T00:37:32;102306.97;;;9.96;77.68
71805;BME280;59654;52.216;5.616;2023-05-20T00:38:03;102307.84;;;9.97;78.17
71805;BME280;59654;52.216;5.616;2023-05-20T00:38:33;102310.50;;;9.99;77.90
71805;BME280;59654;52.216;5.616;2023-05-20T00:39:05;102306.00;;;10.01;78.09
71805;BME280;59654;52.216;5.616;2023-05-20T00:39:35;102306.88;;;10.01;78.45
71805;BME280;59654;52.216;5.616;2023-05-20T00:40:07;102309.56;;;10.00;78.39
71805;BME280;59654;52.216;5.616;2023-05-20T00:40:38;102310.44;;;10.02;77.57
71805;BME280;59654;52.216;5.616;2023-05-20T00:41:09;102311.34;;;10.01;78.46
71805;BME280;59654;52.216;5.616;2023-05-20T00:41:40;102311.41;;;9.96;77.57
71805;BME280;59654;52.216;5.616;2023-05-20T00:42:10;102299.00;;;9.95;78.33
71805;BME280;59654;52.216;5.616;2023-05-20T00:42:42;102312.31;;;9.95;77.80
71805;BME280;59654;52.216;5.616;2023-05-20T00:43:13;102313.13;;;10.00;78.20
71805;BME280;59654;52.216;5.616;2023-05-20T00:43:44;102317.59;;;9.98;78.33
71805;BME280;59654;52.216;5.616;2023-05-20T00:44:16;102308.75;;;9.96;78.34
71805;BME280;59654;52.216;5.616;2023-05-20T00:44:48;102308.75;;;9.96;78.56
71805;BME280;59654;52.216;5.616;2023-05-20T00:45:19;102315.00;;;9.93;77.66
71805;BME280;59654;52.216;5.616;2023-05-20T00:45:53;102317.69;;;9.90;78.80
71805;BME280;59654;52.216;5.616;2023-05-20T00:46:27;102306.16;;;9.90;78.37
71805;BME280;59654;52.216;5.616;2023-05-20T00:46:58;102307.94;;;9.88;79.19
71805;BME280;59654;52.216;5.616;2023-05-20T00:47:33;102311.50;;;9.87;78.91
71805;BME280;59654;52.216;5.616;2023-05-20T00:48:06;102318.63;;;9.85;79.42
71805;BME280;59654;52.216;5.616;2023-05-20T00:48:42;102310.63;;;9.85;79.21
71805;BME280;59654;52.216;5.616;2023-05-20T00:49:13;102307.97;;;9.85;78.98
71805;BME280;59654;52.216;5.616;2023-05-20T00:49:46;102303.50;;;9.87;78.95
71805;BME280;59654;52.216;5.616;2023-05-20T00:50:22;102310.63;;;9.85;78.76
71805;BME280;59654;52.216;5.616;2023-05-20T00:50:52;102311.50;;;9.88;78.92
71805;BME280;59654;52.216;5.616;2023-05-20T00:51:24;102315.06;;;9.86;79.33
71805;BME280;59654;52.216;5.616;2023-05-20T00:51:55;102305.28;;;9.88;79.30
71805;BME280;59654;52.216;5.616;2023-05-20T00:52:30;102304.41;;;9.86;78.82
71805;BME280;59654;52.216;5.616;2023-05-20T00:53:02;102300.84;;;9.87;79.67
71805;BME280;59654;52.216;5.616;2023-05-20T00:53:34;102310.59;;;9.88;78.53
71805;BME280;59654;52.216;5.616;2023-05-20T00:54:06;102305.28;;;9.86;78.47
71805;BME280;59654;52.216;5.616;2023-05-20T00:54:37;102311.47;;;9.91;79.04
71805;BME280;59654;52.216;5.616;2023-05-20T00:55:09;102307.03;;;9.89;78.53
71805;BME280;59654;52.216;5.616;2023-05-20T00:55:40;102300.84;;;9.88;78.70
71805;BME280;59654;52.216;5.616;2023-05-20T00:56:12;102306.16;;;9.90;78.98
71805;BME280;59654;52.216;5.616;2023-05-20T00:56:43;102304.38;;;9.90;79.30
71805;BME280;59654;52.216;5.616;2023-05-20T00:57:15;102304.34;;;9.93;79.07
71805;BME280;59654;52.216;5.616;2023-05-20T00:57:48;102298.13;;;9.93;78.61
71805;BME280;59654;52.216;5.616;2023-05-20T00:58:19;102300.75;;;9.98;78.80
71805;BME280;59654;52.216;5.616;2023-05-20T00:58:50;102298.09;;;9.96;78.86
71805;BME280;59654;52.216;5.616;2023-05-20T00:59:21;102298.09;;;9.94;78.84
71805;BME280;59654;52.216;5.616;2023-05-20T00:59:53;102301.63;;;9.98;78.15
71805;BME280;59654;52.216;5.616;2023-05-20T01:00:24;102298.97;;;9.96;78.38
71805;BME280;59654;52.216;5.616;2023-05-20T01:00:55;102302.56;;;9.94;78.27
71805;BME280;59654;52.216;5.616;2023-05-20T01:01:26;102291.88;;;9.95;78.64
71805;BME280;59654;52.216;5.616;2023-05-20T01:01:57;102297.22;;;9.95;78.89
71805;BME280;59654;52.216;5.616;2023-05-20T01:02:29;102298.09;;;9.96;78.98
71805;BME280;59654;52.216;5.616;2023-05-20T01:03:00;102296.31;;;9.95;78.48
71805;BME280;59654;52.216;5.616;2023-05-20T01:03:31;102290.06;;;9.98;78.06
71805;BME280;59654;52.216;5.616;2023-05-20T01:04:03;102294.56;;;9.94;78.48
71805;BME280;59654;52.216;5.616;2023-05-20T01:04:33;102297.22;;;9.94;79.01
71805;BME280;59654;52.216;5.616;2023-05-20T01:05:04;102295.41;;;9.98;78.24
71805;BME280;59654;52.216;5.616;2023-05-20T01:05:36;102292.78;;;9.94;78.02
71805;BME280;59654;52.216;5.616;2023-05-20T01:06:07;102293.63;;;9.98;78.34
71805;BME280;59654;52.216;5.616;2023-05-20T01:06:38;102290.06;;;9.98;78.76
71805;BME280;59654;52.216;5.616;2023-05-20T01:07:08;102285.66;;;9.96;78.43
71805;BME280;59654;52.216;5.616;2023-05-20T01:07:40;102290.03;;;9.99;78.05
71805;BME280;59654;52.216;5.616;2023-05-20T01:08:12;102287.38;;;9.99;78.56
71805;BME280;59654;52.216;5.616;2023-05-20T01:08:43;102287.44;;;9.94;78.65
71805;BME280;59654;52.216;5.616;2023-05-20T01:09:15;102292.75;;;9.96;77.77
71805;BME280;59654;52.216;5.616;2023-05-20T01:09:46;102283.03;;;9.93;78.18
71805;BME280;59654;52.216;5.616;2023-05-20T01:10:17;102291.00;;;9.95;78.54
71805;BME280;59654;52.216;5.616;2023-05-20T01:10:54;102285.63;;;9.98;78.61
71805;BME280;59654;52.216;5.616;2023-05-20T01:11:35;102289.09;;;10.03;78.47
71805;BME280;59654;52.216;5.616;2023-05-20T01:12:15;102286.44;;;10.03;78.37
71805;BME280;59654;52.216;5.616;2023-05-20T01:12:53;102290.84;;;10.06;77.90
71805;BME280;59654;52.216;5.616;2023-05-20T01:13:32;102289.06;;;10.06;77.96
71805;BME280;59654;52.216;5.616;2023-05-20T01:14:10;102291.72;;;10.08;77.11
71805;BME280;59654;52.216;5.616;2023-05-20T01:14:48;102285.47;;;10.10;77.82
71805;BME280;59654;52.216;5.616;2023-05-20T01:15:23;102291.69;;;10.11;78.13
71805;BME280;59654;52.216;5.616;2023-05-20T01:15:55;102285.44;;;10.13;77.91
71805;BME280;59654;52.216;5.616;2023-05-20T01:16:28;102280.13;;;10.12;78.10
71805;BME280;59654;52.216;5.616;2023-05-20T01:17:01;102290.78;;;10.12;78.11
71805;BME280;59654;52.216;5.616;2023-05-20T01:17:43;102289.00;;;10.11;78.28
71805;BME280;59654;52.216;5.616;2023-05-20T01:18:16;102287.25;;;10.10;78.25
71805;BME280;59654;52.216;5.616;2023-05-20T01:18:50;102285.47;;;10.09;78.30
71805;BME280;59654;52.216;5.616;2023-05-20T01:19:34;102287.25;;;10.08;77.71
71805;BME280;59654;52.216;5.616;2023-05-20T01:20:08;102290.78;;;10.10;77.27
71805;BME280;59654;52.216;5.616;2023-05-20T01:20:39;102285.50;;;10.07;78.23
71805;BME280;59654;52.216;5.616;2023-05-20T01:21:12;102285.50;;;10.07;78.44
71805;BME280;59654;52.216;5.616;2023-05-20T01:21:47;102281.97;;;10.05;78.07
71805;BME280;59654;52.216;5.616;2023-05-20T01:22:55;102284.66;;;10.04;78.75
71805;BME280;59654;52.216;5.616;2023-05-20T01:23:32;102279.34;;;10.02;77.99
71805;BME280;59654;52.216;5.616;2023-05-20T01:24:12;102282.00;;;10.04;78.76
71805;BME280;59654;52.216;5.616;2023-05-20T01:24:45;102276.66;;;10.04;78.66
71805;BME280;59654;52.216;5.616;2023-05-20T01:25:23;102279.34;;;10.02;77.60
71805;BME280;59654;52.216;5.616;2023-05-20T01:25:55;102283.78;;;10.02;78.62
71805;BME280;59654;52.216;5.616;2023-05-20T01:26:26;102272.25;;;10.01;78.26
71805;BME280;59654;52.216;5.616;2023-05-20T01:26:57;102274.88;;;10.03;78.66
71805;BME280;59654;52.216;5.616;2023-05-20T01:27:28;102278.47;;;10.02;78.21
71805;BME280;59654;52.216;5.616;2023-05-20T01:28:00;102281.13;;;10.02;78.27
71805;BME280;59654;52.216;5.616;2023-05-20T01:28:36;102271.31;;;10.04;77.56
71805;BME280;59654;52.216;5.616;2023-05-20T01:29:10;102278.41;;;10.05;78.23
71805;BME280;59654;52.216;5.616;2023-05-20T01:29:43;102278.47;;;10.02;78.56
71805;BME280;59654;52.216;5.616;2023-05-20T01:30:15;102272.22;;;10.04;77.88
71805;BME280;59654;52.216;5.616;2023-05-20T01:30:51;102275.75;;;10.05;78.32
71805;BME280;59654;52.216;5.616;2023-05-20T01:31:32;102270.41;;;10.06;77.92
71805;BME280;59654;52.216;5.616;2023-05-20T01:32:18;102270.41;;;10.06;78.40
71805;BME280;59654;52.216;5.616;2023-05-20T01:32:54;102272.19;;;10.06;78.33
71805;BME280;59654;52.216;5.616;2023-05-20T01:33:30;102270.41;;;10.06;78.45
71805;BME280;59654;52.216;5.616;2023-05-20T01:34:03;102271.28;;;10.08;77.77
71805;BME280;59654;52.216;5.616;2023-05-20T01:34:34;102271.25;;;10.11;78.02
71805;BME280;59654;52.216;5.616;2023-05-20T01:35:07;102274.78;;;10.12;78.34
71805;BME280;59654;52.216;5.616;2023-05-20T01:35:40;102268.59;;;10.10;77.26
71805;BME280;59654;52.216;5.616;2023-05-20T01:36:13;102269.47;;;10.10;78.01
71805;BME280;59654;52.216;5.616;2023-05-20T01:36:45;102267.69;;;10.12;77.65
71805;BME280;59654;52.216;5.616;2023-05-20T01:37:18;102265.03;;;10.09;77.57
71805;BME280;59654;52.216;5.616;2023-05-20T01:37:52;102269.47;;;10.12;78.08
71805;BME280;59654;52.216;5.616;2023-05-20T01:38:24;102274.81;;;10.10;78.15
71805;BME280;59654;52.216;5.616;2023-05-20T01:38:57;102269.44;;;10.13;77.20
71805;BME280;59654;52.216;5.616;2023-05-20T01:39:35;102272.13;;;10.12;78.33
71805;BME280;59654;52.216;5.616;2023-05-20T01:40:14;102274.81;;;10.10;77.87
71805;BME280;59654;52.216;5.616;2023-05-20T01:40:46;102269.47;;;10.10;77.48
71805;BME280;59654;52.216;5.616;2023-05-20T01:41:19;102274.78;;;10.15;77.55
71805;BME280;59654;52.216;5.616;2023-05-20T01:41:51;102272.94;;;10.17;77.58
71805;BME280;59654;52.216;5.616;2023-05-20T01:42:26;102273.84;;;10.16;77.42
71805;BME280;59654;52.216;5.616;2023-05-20T01:42:58;102264.97;;;10.17;77.48
71805;BME280;59654;52.216;5.616;2023-05-20T01:43:30;102268.53;;;10.14;77.56
71805;BME280;59654;52.216;5.616;2023-05-20T01:44:01;102279.19;;;10.16;77.49
71805;BME280;59654;52.216;5.616;2023-05-20T01:44:33;102267.63;;;10.15;78.19
71805;BME280;59654;52.216;5.616;2023-05-20T01:45:05;102265.88;;;10.14;77.32
71805;BME280;59654;52.216;5.616;2023-05-20T01:45:36;102273.00;;;10.14;77.69
71805;BME280;59654;52.216;5.616;2023-05-20T01:46:09;102262.28;;;10.17;77.76
71805;BME280;59654;52.216;5.616;2023-05-20T01:46:40;102268.50;;;10.19;77.99
71805;BME280;59654;52.216;5.616;2023-05-20T01:47:12;102264.94;;;10.18;77.40
71805;BME280;59654;52.216;5.616;2023-05-20T01:47:44;102258.72;;;10.19;77.49
71805;BME280;59654;52.216;5.616;2023-05-20T01:48:15;102260.47;;;10.20;77.72
71805;BME280;59654;52.216;5.616;2023-05-20T01:48:47;102263.16;;;10.19;77.02
71805;BME280;59654;52.216;5.616;2023-05-20T01:49:18;102262.25;;;10.20;77.04
71805;BME280;59654;52.216;5.616;2023-05-20T01:49:49;102264.91;;;10.20;77.22
71805;BME280;59654;52.216;5.616;2023-05-20T01:50:23;102266.69;;;10.19;77.36
71805;BME280;59654;52.216;5.616;2023-05-20T01:50:54;102272.03;;;10.19;77.29
71805;BME280;59654;52.216;5.616;2023-05-20T01:51:25;102260.53;;;10.16;77.28
71805;BME280;59654;52.216;5.616;2023-05-20T01:51:56;102259.59;;;10.18;76.98
71805;BME280;59654;52.216;5.616;2023-05-20T01:52:27;102263.19;;;10.16;78.26
71805;BME280;59654;52.216;5.616;2023-05-20T01:52:58;102262.28;;;10.17;77.18
71805;BME280;59654;52.216;5.616;2023-05-20T01:53:29;102256.03;;;10.19;77.21
71805;BME280;59654;52.216;5.616;2023-05-20T01:54:00;102257.81;;;10.20;77.12
71805;BME280;59654;52.216;5.616;2023-05-20T01:54:31;102260.47;;;10.20;76.92
71805;BME280;59654;52.216;5.616;2023-05-20T01:55:02;102255.13;;;10.20;77.50
71805;BME280;59654;52.216;5.616;2023-05-20T01:55:33;102259.59;;;10.18;76.98
71805;BME280;59654;52.216;5.616;2023-05-20T01:56:05;102256.03;;;10.21;77.71
71805;BME280;59654;52.216;5.616;2023-05-20T01:56:36;102261.31;;;10.24;77.50
71805;BME280;59654;52.216;5.616;2023-05-20T01:57:06;102254.22;;;10.23;77.26
71805;BME280;59654;52.216;5.616;2023-05-20T01:57:37;102255.13;;;10.20;77.11
71805;BME280;59654;52.216;5.616;2023-05-20T01:58:08;102253.38;;;10.19;77.18
71805;BME280;59654;52.216;5.616;2023-05-20T01:58:40;102261.41;;;10.16;77.65
71805;BME280;59654;52.216;5.616;2023-05-20T01:59:11;102264.06;;;10.16;77.82
71805;BME280;59654;52.216;5.616;2023-05-20T01:59:43;102258.75;;;10.16;77.74
71805;BME280;59654;52.216;5.616;2023-05-20T02:00:15;102259.63;;;10.17;77.30
71805;BME280;59654;52.216;5.616;2023-05-20T02:00:48;102258.78;;;10.15;77.77
71805;BME280;59654;52.216;5.616;2023-05-20T02:01:19;102261.41;;;10.16;77.33
71805;BME280;59654;52.216;5.616;2023-05-20T02:01:50;102259.63;;;10.17;77.08
71805;BME280;59654;52.216;5.616;2023-05-20T02:02:20;102257.88;;;10.14;77.97
71805;BME280;59654;52.216;5.616;2023-05-20T02:02:51;102257.88;;;10.14;78.35
71805;BME280;59654;52.216;5.616;2023-05-20T02:03:22;102257.88;;;10.14;77.42
71805;BME280;59654;52.216;5.616;2023-05-20T02:03:53;102257.88;;;10.14;77.79
71805;BME280;59654;52.216;5.616;2023-05-20T02:04:24;102255.22;;;10.14;78.10
71805;BME280;59654;52.216;5.616;2023-05-20T02:04:54;102255.22;;;10.14;78.28
71805;BME280;59654;52.216;5.616;2023-05-20T02:05:25;102263.19;;;10.16;77.94
71805;BME280;59654;52.216;5.616;2023-05-20T02:05:56;102257.00;;;10.12;77.43
71805;BME280;59654;52.216;5.616;2023-05-20T02:06:27;102256.13;;;10.13;77.59
71805;BME280;59654;52.216;5.616;2023-05-20T02:06:58;102255.22;;;10.13;77.66
71805;BME280;59654;52.216;5.616;2023-05-20T02:07:29;102254.34;;;10.14;77.71
71805;BME280;59654;52.216;5.616;2023-05-20T02:08:00;102256.13;;;10.13;77.83
71805;BME280;59654;52.216;5.616;2023-05-20T02:08:31;102263.22;;;10.13;78.29
71805;BME280;59654;52.216;5.616;2023-05-20T02:09:03;102250.81;;;10.15;77.46
71805;BME280;59654;52.216;5.616;2023-05-20T02:09:34;102256.13;;;10.13;77.69
71805;BME280;59654;52.216;5.616;2023-05-20T02:10:05;102259.66;;;10.15;77.85
71805;BME280;59654;52.216;5.616;2023-05-20T02:10:37;102255.19;;;10.16;78.24
71805;BME280;59654;52.216;5.616;2023-05-20T02:11:08;102260.53;;;10.14;77.48
71805;BME280;59654;52.216;5.616;2023-05-20T02:11:40;102255.25;;;10.11;77.60
71805;BME280;59654;52.216;5.616;2023-05-20T02:12:11;102260.56;;;10.11;77.83
71805;BME280;59654;52.216;5.616;2023-05-20T02:12:46;102257.06;;;10.09;77.48
71805;BME280;59654;52.216;5.616;2023-05-20T02:13:18;102258.81;;;10.10;78.07
71805;BME280;59654;52.216;5.616;2023-05-20T02:13:50;102257.06;;;10.09;77.54
71805;BME280;59654;52.216;5.616;2023-05-20T02:14:21;102256.16;;;10.10;78.36
71805;BME280;59654;52.216;5.616;2023-05-20T02:14:52;102266.84;;;10.07;77.83
71805;BME280;59654;52.216;5.616;2023-05-20T02:15:22;102265.03;;;10.11;78.24
71805;BME280;59654;52.216;5.616;2023-05-20T02:15:53;102261.47;;;10.10;77.93
71805;BME280;59654;52.216;5.616;2023-05-20T02:16:24;102265.03;;;10.09;77.91
71805;BME280;59654;52.216;5.616;2023-05-20T02:16:55;102263.22;;;10.13;78.37
71805;BME280;59654;52.216;5.616;2023-05-20T02:17:26;102266.78;;;10.13;78.35
71805;BME280;59654;52.216;5.616;2023-05-20T02:17:57;102265.88;;;10.14;78.13
71805;BME280;59654;52.216;5.616;2023-05-20T02:18:27;102258.78;;;10.13;77.61
71805;BME280;59654;52.216;5.616;2023-05-20T02:18:58;102251.66;;;10.15;77.70
71805;BME280;59654;52.216;5.616;2023-05-20T02:19:32;102265.00;;;10.14;77.35
71805;BME280;59654;52.216;5.616;2023-05-20T02:20:03;102255.22;;;10.13;77.76
71805;BME280;59654;52.216;5.616;2023-05-20T02:20:37;102261.47;;;10.15;78.41
71805;BME280;59654;52.216;5.616;2023-05-20T02:21:09;102254.34;;;10.12;77.44
71805;BME280;59654;52.216;5.616;2023-05-20T02:21:41;102260.63;;;10.08;78.62
71805;BME280;59654;52.216;5.616;2023-05-20T02:22:14;102259.72;;;10.08;78.08
71805;BME280;59654;52.216;5.616;2023-05-20T02:22:47;102251.75;;;10.06;78.65
71805;BME280;59654;52.216;5.616;2023-05-20T02:23:17;102255.31;;;10.05;78.02
71805;BME280;59654;52.216;5.616;2023-05-20T02:23:48;102258.88;;;10.04;78.89
71805;BME280;59654;52.216;5.616;2023-05-20T02:24:19;102258.88;;;10.04;78.24
71805;BME280;59654;52.216;5.616;2023-05-20T02:24:51;102257.13;;;10.03;78.25
71805;BME280;59654;52.216;5.616;2023-05-20T02:25:22;102258.03;;;10.02;78.95
71805;BME280;59654;52.216;5.616;2023-05-20T02:25:53;102250.91;;;10.03;78.30
71805;BME280;59654;52.216;5.616;2023-05-20T02:26:24;102251.78;;;10.03;78.22
71805;BME280;59654;52.216;5.616;2023-05-20T02:26:55;102258.91;;;10.01;78.90
71805;BME280;59654;52.216;5.616;2023-05-20T02:27:28;102258.91;;;10.01;78.28
71805;BME280;59654;52.216;5.616;2023-05-20T02:27:59;102256.25;;;10.01;79.10
71805;BME280;59654;52.216;5.616;2023-05-20T02:28:31;102252.72;;;10.01;78.21
71805;BME280;59654;52.216;5.616;2023-05-20T02:29:02;102259.81;;;10.00;78.65
71805;BME280;59654;52.216;5.616;2023-05-20T02:29:33;102255.38;;;9.99;78.96
71805;BME280;59654;52.216;5.616;2023-05-20T02:30:05;102255.44;;;9.98;78.11
71805;BME280;59654;52.216;5.616;2023-05-20T02:30:37;102249.22;;;9.97;78.91
71805;BME280;59654;52.216;5.616;2023-05-20T02:31:08;102258.03;;;10.01;78.70
71805;BME280;59654;52.216;5.616;2023-05-20T02:31:39;102256.31;;;9.98;79.18
71805;BME280;59654;52.216;5.616;2023-05-20T02:32:09;102251.88;;;9.99;78.61
71805;BME280;59654;52.216;5.616;2023-05-20T02:32:40;102252.72;;;9.99;78.83
71805;BME280;59654;52.216;5.616;2023-05-20T02:33:12;102253.59;;;10.00;79.23
71805;BME280;59654;52.216;5.616;2023-05-20T02:33:44;102251.88;;;9.99;79.06
71805;BME280;59654;52.216;5.616;2023-05-20T02:34:16;102251.81;;;10.00;79.29
71805;BME280;59654;52.216;5.616;2023-05-20T02:34:48;102252.72;;;9.99;78.86
71805;BME280;59654;52.216;5.616;2023-05-20T02:35:18;102255.38;;;10.01;78.62
71805;BME280;59654;52.216;5.616;2023-05-20T02:35:49;102249.16;;;10.00;78.00
71805;BME280;59654;52.216;5.616;2023-05-20T02:36:20;102247.44;;;9.98;78.89
71805;BME280;59654;52.216;5.616;2023-05-20T02:36:51;102249.25;;;9.95;79.38
71805;BME280;59654;52.216;5.616;2023-05-20T02:37:22;102255.38;;;9.99;79.27
71805;BME280;59654;52.216;5.616;2023-05-20T02:37:53;102252.72;;;10.01;79.28
71805;BME280;59654;52.216;5.616;2023-05-20T02:38:24;102251.81;;;10.00;78.86
71805;BME280;59654;52.216;5.616;2023-05-20T02:38:55;102243.84;;;10.00;79.26
71805;BME280;59654;52.216;5.616;2023-05-20T02:39:26;102256.28;;;10.00;78.16
71805;BME280;59654;52.216;5.616;2023-05-20T02:39:58;102250.03;;;10.01;78.39
71805;BME280;59654;52.216;5.616;2023-05-20T02:40:28;102246.53;;;9.99;78.79
71805;BME280;59654;52.216;5.616;2023-05-20T02:40:59;102250.06;;;9.99;78.71
71805;BME280;59654;52.216;5.616;2023-05-20T02:41:30;102249.25;;;9.94;79.17
71805;BME280;59654;52.216;5.616;2023-05-20T02:42:01;102251.00;;;9.96;78.70
71805;BME280;59654;52.216;5.616;2023-05-20T02:42:32;102249.25;;;9.95;79.62
71805;BME280;59654;52.216;5.616;2023-05-20T02:43:03;102249.25;;;9.95;79.18
71805;BME280;59654;52.216;5.616;2023-05-20T02:43:34;102253.72;;;9.93;78.74
71805;BME280;59654;52.216;5.616;2023-05-20T02:44:05;102247.50;;;9.91;79.28
71805;BME280;59654;52.216;5.616;2023-05-20T02:44:36;102252.84;;;9.91;79.27
71805;BME280;59654;52.216;5.616;2023-05-20T02:45:07;102254.59;;;9.92;78.71
71805;BME280;59654;52.216;5.616;2023-05-20T02:45:39;102245.75;;;9.90;79.48
71805;BME280;59654;52.216;5.616;2023-05-20T02:46:10;102250.19;;;9.90;79.47
71805;BME280;59654;52.216;5.616;2023-05-20T02:46:41;102244.00;;;9.88;79.51
71805;BME280;59654;52.216;5.616;2023-05-20T02:47:13;102249.34;;;9.86;79.97
71805;BME280;59654;52.216;5.616;2023-05-20T02:47:44;102252.00;;;9.86;79.43
71805;BME280;59654;52.216;5.616;2023-05-20T02:48:14;102243.16;;;9.84;79.61
71805;BME280;59654;52.216;5.616;2023-05-20T02:48:45;102248.47;;;9.84;79.45